sensor_id;sensor_type;location;lat;lon;timestamp;P1;durP1;ratioP1;P2;durP2;ratioP2
13973;SDS011;7060;43.770;4.008;2023-07-30T00:01:21;10.20;;;5.05;;
13973;SDS011;7060;43.770;4.008;2023-07-30T00:03:50;6.07;;;5.47;;
13973;SDS011;7060;43.770;4.008;2023-07-30T00:06:19;6.70;;;5.57;;
13973;SDS011;7060;43.770;4.008;2023-07-30T00:08:50;8.20;;;5.00;;
13973;SDS011;7060;43.770;4.008;2023-07-30T00:11:18;7.55;;;5.63;;
13973;SDS011;7060;43.770;4.008;2023-07-30T00:13:47;7.53;;;5.22;;
13973;SDS011;7060;43.770;4.008;2023-07-30T00:16:16;9.38;;;5.03;;
13973;SDS011;7060;43.770;4.008;2023-07-30T00:18:46;6.18;;;4.57;;
13973;SDS011;7060;43.770;4.008;2023-07-30T00:21:14;7.05;;;4.93;;
13973;SDS011;7060;43.770;4.008;2023-07-30T00:23:45;7.43;;;4.80;;
13973;SDS011;7060;43.770;4.008;2023-07-30T00:26:15;8.27;;;5.70;;
13973;SDS011;7060;43.770;4.008;2023-07-30T00:28:44;9.40;;;5.60;;
13973;SDS011;7060;43.770;4.008;2023-07-30T00:31:14;7.40;;;5.57;;
13973;SDS011;7060;43.770;4.008;2023-07-30T00:33:43;6.57;;;5.10;;
13973;SDS011;7060;43.770;4.008;2023-07-30T00:36:12;6.63;;;5.30;;
13973;SDS011;7060;43.770;4.008;2023-07-30T00:38:42;5.75;;;4.78;;
13973;SDS011;7060;43.770;4.008;2023-07-30T00:41:12;6.40;;;5.15;;
13973;SDS011;7060;43.770;4.008;2023-07-30T00:43:42;6.13;;;4.78;;
13973;SDS011;7060;43.770;4.008;2023-07-30T00:46:14;8.15;;;5.28;;
13973;SDS011;7060;43.770;4.008;2023-07-30T00:48:43;7.03;;;4.90;;
13973;SDS011;7060;43.770;4.008;2023-07-30T00:51:13;6.10;;;5.20;;
13973;SDS011;7060;43.770;4.008;2023-07-30T00:53:44;7.85;;;5.05;;
13973;SDS011;7060;43.770;4.008;2023-07-30T00:56:13;7.43;;;4.97;;
13973;SDS011;7060;43.770;4.008;2023-07-30T00:58:45;6.95;;;4.70;;
13973;SDS011;7060;43.770;4.008;2023-07-30T01:01:16;7.60;;;4.72;;
13973;SDS011;7060;43.770;4.008;2023-07-30T01:03:46;6.07;;;5.47;;
13973;SDS011;7060;43.770;4.008;2023-07-30T01:06:17;6.53;;;5.32;;
13973;SDS011;7060;43.770;4.008;2023-07-30T01:08:47;7.78;;;5.40;;
13973;SDS011;7060;43.770;4.008;2023-07-30T01:11:16;8.38;;;5.28;;
13973;SDS011;7060;43.770;4.008;2023-07-30T01:13:48;6.57;;;4.97;;
13973;SDS011;7060;43.770;4.008;2023-07-30T01:16:17;7.25;;;4.80;;
13973;SDS011;7060;43.770;4.008;2023-07-30T01:18:46;5.18;;;4.25;;
13973;SDS011;7060;43.770;4.008;2023-07-30T01:21:17;5.75;;;5.25;;
13973;SDS011;7060;43.770;4.008;2023-07-30T01:23:46;6.20;;;4.95;;
13973;SDS011;7060;43.770;4.008;2023-07-30T01:26:17;6.35;;;5.15;;
13973;SDS011;7060;43.770;4.008;2023-07-30T01:28:51;8.60;;;5.22;;
13973;SDS011;7060;43.770;4.008;2023-07-30T01:31:25;6.53;;;4.88;;
13973;SDS011;7060;43.770;4.008;2023-07-30T01:33:57;6.00;;;4.93;;
13973;SDS011;7060;43.770;4.008;2023-07-30T01:36:29;7.32;;;4.50;;
13973;SDS011;7060;43.770;4.008;2023-07-30T01:38:59;10.48;;;5.25;;
13973;SDS011;7060;43.770;4.008;2023-07-30T01:41:29;7.75;;;4.65;;
13973;SDS011;7060;43.770;4.008;2023-07-30T01:43:58;7.75;;;5.63;;
13973;SDS011;7060;43.770;4.008;2023-07-30T01:46:28;7.20;;;4.88;;
13973;SDS011;7060;43.770;4.008;2023-07-30T01:48:57;6.40;;;5.80;;
13973;SDS011;7060;43.770;4.008;2023-07-30T01:51:26;9.30;;;5.05;;
13973;SDS011;7060;43.770;4.008;2023-07-30T01:53:56;5.47;;;4.88;;
13973;SDS011;7060;43.770;4.008;2023-07-30T01:56:25;6.20;;;5.03;;
13973;SDS011;7060;43.770;4.008;2023-07-30T01:58:54;6.57;;;5.00;;
13973;SDS011;7060;43.770;4.008;2023-07-30T02:01:23;6.90;;;5.18;;
13973;SDS011;7060;43.770;4.008;2023-07-30T02:03:52;5.95;;;4.88;;
13973;SDS011;7060;43.770;4.008;2023-07-30T02:06:21;6.25;;;5.53;;
13973;SDS011;7060;43.770;4.008;2023-07-30T02:08:49;5.88;;;5.15;;
13973;SDS011;7060;43.770;4.008;2023-07-30T02:11:20;5.65;;;5.13;;
13973;SDS011;7060;43.770;4.008;2023-07-30T02:13:48;5.70;;;4.82;;
13973;SDS011;7060;43.770;4.008;2023-07-30T02:16:17;7.63;;;5.05;;
13973;SDS011;7060;43.770;4.008;2023-07-30T02:18:46;5.50;;;4.93;;
13973;SDS011;7060;43.770;4.008;2023-07-30T02:21:15;5.45;;;4.97;;
13973;SDS011;7060;43.770;4.008;2023-07-30T02:23:43;7.30;;;5.78;;
13973;SDS011;7060;43.770;4.008;2023-07-30T02:26:13;6.68;;;5.80;;
13973;SDS011;7060;43.770;4.008;2023-07-30T02:28:43;5.32;;;4.78;;
13973;SDS011;7060;43.770;4.008;2023-07-30T02:31:13;5.32;;;4.90;;
13973;SDS011;7060;43.770;4.008;2023-07-30T02:33:42;7.05;;;4.80;;
13973;SDS011;7060;43.770;4.008;2023-07-30T02:36:12;6.85;;;4.88;;
13973;SDS011;7060;43.770;4.008;2023-07-30T02:38:42;8.52;;;5.28;;
13973;SDS011;7060;43.770;4.008;2023-07-30T02:41:10;7.43;;;5.28;;
13973;SDS011;7060;43.770;4.008;2023-07-30T02:43:39;5.38;;;4.82;;
13973;SDS011;7060;43.770;4.008;2023-07-30T02:46:09;6.47;;;5.45;;
13973;SDS011;7060;43.770;4.008;2023-07-30T02:48:38;5.32;;;4.82;;
13973;SDS011;7060;43.770;4.008;2023-07-30T02:51:07;7.05;;;5.55;;
13973;SDS011;7060;43.770;4.008;2023-07-30T02:53:35;7.15;;;5.30;;
13973;SDS011;7060;43.770;4.008;2023-07-30T02:56:05;5.68;;;5.07;;
13973;SDS011;7060;43.770;4.008;2023-07-30T02:58:34;5.15;;;4.75;;
13973;SDS011;7060;43.770;4.008;2023-07-30T03:01:06;7.05;;;5.03;;
13973;SDS011;7060;43.770;4.008;2023-07-30T03:03:37;8.05;;;4.72;;
13973;SDS011;7060;43.770;4.008;2023-07-30T03:06:05;7.22;;;5.30;;
13973;SDS011;7060;43.770;4.008;2023-07-30T03:08:34;4.78;;;4.32;;
13973;SDS011;7060;43.770;4.008;2023-07-30T03:11:04;5.05;;;4.57;;
13973;SDS011;7060;43.770;4.008;2023-07-30T03:13:33;4.32;;;3.92;;
13973;SDS011;7060;43.770;4.008;2023-07-30T03:16:02;6.13;;;4.53;;
13973;SDS011;7060;43.770;4.008;2023-07-30T03:18:31;6.03;;;4.60;;
13973;SDS011;7060;43.770;4.008;2023-07-30T03:21:01;7.35;;;4.30;;
13973;SDS011;7060;43.770;4.008;2023-07-30T03:23:30;4.78;;;4.32;;
13973;SDS011;7060;43.770;4.008;2023-07-30T03:26:00;4.57;;;4.18;;
13973;SDS011;7060;43.770;4.008;2023-07-30T03:28:29;4.82;;;4.03;;
13973;SDS011;7060;43.770;4.008;2023-07-30T03:30:58;4.63;;;4.20;;
13973;SDS011;7060;43.770;4.008;2023-07-30T03:33:27;4.53;;;4.05;;
13973;SDS011;7060;43.770;4.008;2023-07-30T03:35:56;4.85;;;3.92;;
13973;SDS011;7060;43.770;4.008;2023-07-30T03:38:26;8.93;;;4.18;;
13973;SDS011;7060;43.770;4.008;2023-07-30T03:40:55;4.75;;;4.25;;
13973;SDS011;7060;43.770;4.008;2023-07-30T03:43:24;4.80;;;4.15;;
13973;SDS011;7060;43.770;4.008;2023-07-30T03:45:54;6.00;;;3.97;;
13973;SDS011;7060;43.770;4.008;2023-07-30T03:48:22;4.13;;;3.45;;
13973;SDS011;7060;43.770;4.008;2023-07-30T03:50:51;5.38;;;3.90;;
13973;SDS011;7060;43.770;4.008;2023-07-30T03:53:20;5.40;;;4.05;;
13973;SDS011;7060;43.770;4.008;2023-07-30T03:55:51;6.03;;;4.07;;
13973;SDS011;7060;43.770;4.008;2023-07-30T03:58:20;4.38;;;3.97;;
13973;SDS011;7060;43.770;4.008;2023-07-30T04:00:48;4.88;;;3.88;;
13973;SDS011;7060;43.770;4.008;2023-07-30T04:03:17;4.45;;;3.75;;
13973;SDS011;7060;43.770;4.008;2023-07-30T04:05:46;4.25;;;3.85;;
13973;SDS011;7060;43.770;4.008;2023-07-30T04:08:15;5.47;;;3.78;;
13973;SDS011;7060;43.770;4.008;2023-07-30T04:10:44;5.40;;;4.05;;
13973;SDS011;7060;43.770;4.008;2023-07-30T04:13:14;3.83;;;3.53;;
13973;SDS011;7060;43.770;4.008;2023-07-30T04:15:43;4.90;;;3.88;;
13973;SDS011;7060;43.770;4.008;2023-07-30T04:18:12;4.70;;;4.20;;
13973;SDS011;7060;43.770;4.008;2023-07-30T04:20:40;6.03;;;4.30;;
13973;SDS011;7060;43.770;4.008;2023-07-30T04:23:11;5.80;;;3.83;;
13973;SDS011;7060;43.770;4.008;2023-07-30T04:25:40;4.35;;;3.70;;
13973;SDS011;7060;43.770;4.008;2023-07-30T04:28:09;4.78;;;3.90;;
13973;SDS011;7060;43.770;4.008;2023-07-30T04:30:40;4.95;;;4.43;;
13973;SDS011;7060;43.770;4.008;2023-07-30T04:33:09;5.03;;;4.15;;
13973;SDS011;7060;43.770;4.008;2023-07-30T04:35:39;4.72;;;3.78;;
13973;SDS011;7060;43.770;4.008;2023-07-30T04:38:08;6.78;;;4.03;;
13973;SDS011;7060;43.770;4.008;2023-07-30T04:40:38;6.43;;;4.18;;
13973;SDS011;7060;43.770;4.008;2023-07-30T04:43:07;5.15;;;4.60;;
13973;SDS011;7060;43.770;4.008;2023-07-30T04:45:37;5.32;;;4.82;;
13973;SDS011;7060;43.770;4.008;2023-07-30T04:48:07;5.23;;;4.70;;
13973;SDS011;7060;43.770;4.008;2023-07-30T04:50:36;4.90;;;4.50;;
13973;SDS011;7060;43.770;4.008;2023-07-30T04:53:07;5.20;;;4.80;;
13973;SDS011;7060;43.770;4.008;2023-07-30T04:55:37;9.52;;;5.20;;
13973;SDS011;7060;43.770;4.008;2023-07-30T04:58:06;6.07;;;4.87;;
13973;SDS011;7060;43.770;4.008;2023-07-30T05:00:35;5.10;;;4.22;;
13973;SDS011;7060;43.770;4.008;2023-07-30T05:03:04;7.38;;;4.95;;
13973;SDS011;7060;43.770;4.008;2023-07-30T05:05:35;7.75;;;5.05;;
13973;SDS011;7060;43.770;4.008;2023-07-30T05:08:04;5.47;;;4.97;;
13973;SDS011;7060;43.770;4.008;2023-07-30T05:10:33;6.00;;;4.47;;
13973;SDS011;7060;43.770;4.008;2023-07-30T05:13:02;5.27;;;4.60;;
13973;SDS011;7060;43.770;4.008;2023-07-30T05:15:30;6.07;;;4.88;;
13973;SDS011;7060;43.770;4.008;2023-07-30T05:17:59;6.75;;;5.22;;
13973;SDS011;7060;43.770;4.008;2023-07-30T05:20:28;4.45;;;4.05;;
13973;SDS011;7060;43.770;4.008;2023-07-30T05:22:58;5.78;;;4.32;;
13973;SDS011;7060;43.770;4.008;2023-07-30T05:25:27;4.55;;;4.13;;
13973;SDS011;7060;43.770;4.008;2023-07-30T05:27:56;6.35;;;4.72;;
13973;SDS011;7060;43.770;4.008;2023-07-30T05:30:25;7.05;;;4.93;;
13973;SDS011;7060;43.770;4.008;2023-07-30T05:32:54;7.63;;;4.15;;
13973;SDS011;7060;43.770;4.008;2023-07-30T05:35:22;4.13;;;3.80;;
13973;SDS011;7060;43.770;4.008;2023-07-30T05:37:51;4.70;;;4.30;;
13973;SDS011;7060;43.770;4.008;2023-07-30T05:40:21;6.75;;;4.88;;
13973;SDS011;7060;43.770;4.008;2023-07-30T05:42:50;3.83;;;3.53;;
13973;SDS011;7060;43.770;4.008;2023-07-30T05:45:22;4.97;;;3.30;;
13973;SDS011;7060;43.770;4.008;2023-07-30T05:47:51;5.33;;;3.80;;
13973;SDS011;7060;43.770;4.008;2023-07-30T05:50:20;3.72;;;3.42;;
13973;SDS011;7060;43.770;4.008;2023-07-30T05:52:49;5.03;;;3.33;;
13973;SDS011;7060;43.770;4.008;2023-07-30T05:55:18;4.28;;;3.60;;
13973;SDS011;7060;43.770;4.008;2023-07-30T05:57:48;4.23;;;3.83;;
13973;SDS011;7060;43.770;4.008;2023-07-30T06:00:17;3.38;;;3.08;;
13973;SDS011;7060;43.770;4.008;2023-07-30T06:02:47;5.10;;;3.33;;
13973;SDS011;7060;43.770;4.008;2023-07-30T06:05:17;3.72;;;3.15;;
13973;SDS011;7060;43.770;4.008;2023-07-30T06:07:47;4.50;;;3.33;;
13973;SDS011;7060;43.770;4.008;2023-07-30T06:10:16;7.10;;;3.60;;
13973;SDS011;7060;43.770;4.008;2023-07-30T06:12:45;6.07;;;3.28;;
13973;SDS011;7060;43.770;4.008;2023-07-30T06:15:15;5.93;;;3.30;;
13973;SDS011;7060;43.770;4.008;2023-07-30T06:17:44;4.35;;;3.95;;
13973;SDS011;7060;43.770;4.008;2023-07-30T06:20:13;4.07;;;3.67;;
13973;SDS011;7060;43.770;4.008;2023-07-30T06:22:43;4.40;;;3.25;;
13973;SDS011;7060;43.770;4.008;2023-07-30T06:25:12;4.15;;;3.13;;
13973;SDS011;7060;43.770;4.008;2023-07-30T06:27:41;7.72;;;3.10;;
13973;SDS011;7060;43.770;4.008;2023-07-30T06:30:11;4.07;;;3.22;;
13973;SDS011;7060;43.770;4.008;2023-07-30T06:32:41;4.05;;;2.78;;
13973;SDS011;7060;43.770;4.008;2023-07-30T06:35:10;3.80;;;3.17;;
13973;SDS011;7060;43.770;4.008;2023-07-30T06:37:39;4.35;;;2.72;;
13973;SDS011;7060;43.770;4.008;2023-07-30T06:40:09;2.80;;;2.53;;
13973;SDS011;7060;43.770;4.008;2023-07-30T06:42:38;4.78;;;2.78;;
13973;SDS011;7060;43.770;4.008;2023-07-30T06:45:07;2.67;;;2.20;;
13973;SDS011;7060;43.770;4.008;2023-07-30T06:47:38;2.30;;;2.10;;
13973;SDS011;7060;43.770;4.008;2023-07-30T06:50:09;2.47;;;1.90;;
13973;SDS011;7060;43.770;4.008;2023-07-30T06:52:38;2.30;;;2.10;;
13973;SDS011;7060;43.770;4.008;2023-07-30T06:55:07;3.08;;;2.78;;
13973;SDS011;7060;43.770;4.008;2023-07-30T06:57:36;3.35;;;2.40;;
13973;SDS011;7060;43.770;4.008;2023-07-30T07:00:06;2.63;;;2.00;;
13973;SDS011;7060;43.770;4.008;2023-07-30T07:02:36;1.65;;;1.50;;
13973;SDS011;7060;43.770;4.008;2023-07-30T07:05:05;1.75;;;1.38;;
13973;SDS011;7060;43.770;4.008;2023-07-30T07:07:36;1.10;;;0.95;;
13973;SDS011;7060;43.770;4.008;2023-07-30T07:10:05;1.63;;;1.27;;
13973;SDS011;7060;43.770;4.008;2023-07-30T07:12:34;1.60;;;1.17;;
13973;SDS011;7060;43.770;4.008;2023-07-30T07:15:04;2.85;;;1.20;;
13973;SDS011;7060;43.770;4.008;2023-07-30T07:17:34;1.55;;;0.70;;
13973;SDS011;7060;43.770;4.008;2023-07-30T07:20:03;1.30;;;0.80;;
13973;SDS011;7060;43.770;4.008;2023-07-30T07:22:35;2.92;;;0.70;;
13973;SDS011;7060;43.770;4.008;2023-07-30T07:25:04;0.77;;;0.50;;
13973;SDS011;7060;43.770;4.008;2023-07-30T07:27:34;1.02;;;0.90;;
13973;SDS011;7060;43.770;4.008;2023-07-30T07:30:03;1.17;;;0.57;;
13973;SDS011;7060;43.770;4.008;2023-07-30T07:32:32;0.77;;;0.50;;
13973;SDS011;7060;43.770;4.008;2023-07-30T07:35:05;0.50;;;0.43;;
13973;SDS011;7060;43.770;4.008;2023-07-30T07:37:36;2.97;;;0.70;;
13973;SDS011;7060;43.770;4.008;2023-07-30T07:40:06;4.43;;;1.38;;
13973;SDS011;7060;43.770;4.008;2023-07-30T07:42:37;0.98;;;0.50;;
13973;SDS011;7060;43.770;4.008;2023-07-30T07:45:07;1.17;;;0.60;;
13973;SDS011;7060;43.770;4.008;2023-07-30T07:47:36;0.70;;;0.60;;
13973;SDS011;7060;43.770;4.008;2023-07-30T07:50:05;0.70;;;0.70;;
13973;SDS011;7060;43.770;4.008;2023-07-30T07:52:36;0.93;;;0.55;;
13973;SDS011;7060;43.770;4.008;2023-07-30T07:55:05;0.70;;;0.65;;
13973;SDS011;7060;43.770;4.008;2023-07-30T07:57:34;1.35;;;0.70;;
13973;SDS011;7060;43.770;4.008;2023-07-30T08:00:05;0.60;;;0.50;;
13973;SDS011;7060;43.770;4.008;2023-07-30T08:02:41;0.82;;;0.60;;
13973;SDS011;7060;43.770;4.008;2023-07-30T08:05:12;0.63;;;0.60;;
13973;SDS011;7060;43.770;4.008;2023-07-30T08:07:43;1.00;;;0.60;;
13973;SDS011;7060;43.770;4.008;2023-07-30T08:10:13;5.18;;;0.90;;
13973;SDS011;7060;43.770;4.008;2023-07-30T08:12:43;3.38;;;0.65;;
13973;SDS011;7060;43.770;4.008;2023-07-30T08:15:14;0.77;;;0.60;;
13973;SDS011;7060;43.770;4.008;2023-07-30T08:17:43;2.70;;;0.80;;
13973;SDS011;7060;43.770;4.008;2023-07-30T08:20:12;2.05;;;0.80;;
13973;SDS011;7060;43.770;4.008;2023-07-30T08:22:41;1.05;;;0.70;;
13973;SDS011;7060;43.770;4.008;2023-07-30T08:25:11;0.70;;;0.70;;
13973;SDS011;7060;43.770;4.008;2023-07-30T08:27:40;1.10;;;0.63;;
13973;SDS011;7060;43.770;4.008;2023-07-30T08:30:09;0.70;;;0.60;;
13973;SDS011;7060;43.770;4.008;2023-07-30T08:32:39;0.80;;;0.70;;
13973;SDS011;7060;43.770;4.008;2023-07-30T08:35:10;1.70;;;0.60;;
13973;SDS011;7060;43.770;4.008;2023-07-30T08:37:39;24.70;;;2.65;;
13973;SDS011;7060;43.770;4.008;2023-07-30T08:40:08;1.30;;;0.70;;
13973;SDS011;7060;43.770;4.008;2023-07-30T08:42:40;1.08;;;0.70;;
13973;SDS011;7060;43.770;4.008;2023-07-30T08:45:09;1.13;;;0.70;;
13973;SDS011;7060;43.770;4.008;2023-07-30T08:47:39;3.00;;;0.63;;
13973;SDS011;7060;43.770;4.008;2023-07-30T08:50:08;0.73;;;0.50;;
13973;SDS011;7060;43.770;4.008;2023-07-30T08:52:38;0.40;;;0.40;;
13973;SDS011;7060;43.770;4.008;2023-07-30T08:55:08;2.08;;;1.00;;
13973;SDS011;7060;43.770;4.008;2023-07-30T08:57:38;3.17;;;0.77;;
13973;SDS011;7060;43.770;4.008;2023-07-30T09:00:12;0.95;;;0.73;;
13973;SDS011;7060;43.770;4.008;2023-07-30T09:02:44;0.63;;;0.60;;
13973;SDS011;7060;43.770;4.008;2023-07-30T09:05:18;0.63;;;0.50;;
13973;SDS011;7060;43.770;4.008;2023-07-30T09:07:48;0.70;;;0.70;;
13973;SDS011;7060;43.770;4.008;2023-07-30T09:10:17;1.00;;;0.60;;
13973;SDS011;7060;43.770;4.008;2023-07-30T09:12:51;0.82;;;0.65;;
13973;SDS011;7060;43.770;4.008;2023-07-30T09:15:28;1.33;;;0.60;;
13973;SDS011;7060;43.770;4.008;2023-07-30T09:17:59;0.73;;;0.70;;
13973;SDS011;7060;43.770;4.008;2023-07-30T09:20:30;0.63;;;0.60;;
13973;SDS011;7060;43.770;4.008;2023-07-30T09:23:07;0.57;;;0.57;;
13973;SDS011;7060;43.770;4.008;2023-07-30T09:25:37;0.50;;;0.50;;
13973;SDS011;7060;43.770;4.008;2023-07-30T09:28:08;0.55;;;0.55;;
13973;SDS011;7060;43.770;4.008;2023-07-30T09:30:37;0.60;;;0.60;;
13973;SDS011;7060;43.770;4.008;2023-07-30T09:33:05;0.70;;;0.57;;
13973;SDS011;7060;43.770;4.008;2023-07-30T09:35:34;2.38;;;0.73;;
13973;SDS011;7060;43.770;4.008;2023-07-30T09:38:03;0.60;;;0.60;;
13973;SDS011;7060;43.770;4.008;2023-07-30T09:40:32;2.00;;;0.70;;
13973;SDS011;7060;43.770;4.008;2023-07-30T09:43:02;0.70;;;0.65;;
13973;SDS011;7060;43.770;4.008;2023-07-30T09:45:34;0.47;;;0.47;;
13973;SDS011;7060;43.770;4.008;2023-07-30T09:48:05;0.70;;;0.70;;
13973;SDS011;7060;43.770;4.008;2023-07-30T09:50:35;1.55;;;0.60;;
13973;SDS011;7060;43.770;4.008;2023-07-30T09:53:04;0.60;;;0.55;;
13973;SDS011;7060;43.770;4.008;2023-07-30T09:55:34;0.70;;;0.70;;
13973;SDS011;7060;43.770;4.008;2023-07-30T09:58:04;1.10;;;0.60;;
13973;SDS011;7060;43.770;4.008;2023-07-30T10:00:38;0.60;;;0.60;;
13973;SDS011;7060;43.770;4.008;2023-07-30T10:03:08;0.60;;;0.60;;
13973;SDS011;7060;43.770;4.008;2023-07-30T10:05:40;4.88;;;1.00;;
13973;SDS011;7060;43.770;4.008;2023-07-30T10:08:14;0.80;;;0.70;;
13973;SDS011;7060;43.770;4.008;2023-07-30T10:10:48;0.60;;;0.60;;
13973;SDS011;7060;43.770;4.008;2023-07-30T10:13:18;1.52;;;0.70;;
13973;SDS011;7060;43.770;4.008;2023-07-30T10:15:50;1.15;;;0.75;;
13973;SDS011;7060;43.770;4.008;2023-07-30T10:18:19;1.80;;;0.93;;
13973;SDS011;7060;43.770;4.008;2023-07-30T10:20:52;1.85;;;1.00;;
13973;SDS011;7060;43.770;4.008;2023-07-30T10:23:22;1.00;;;0.80;;
13973;SDS011;7060;43.770;4.008;2023-07-30T10:25:55;1.15;;;0.60;;
13973;SDS011;7060;43.770;4.008;2023-07-30T10:28:27;0.73;;;0.63;;
13973;SDS011;7060;43.770;4.008;2023-07-30T10:31:02;0.75;;;0.70;;
13973;SDS011;7060;43.770;4.008;2023-07-30T10:33:45;0.63;;;0.60;;
13973;SDS011;7060;43.770;4.008;2023-07-30T10:36:16;0.60;;;0.60;;
13973;SDS011;7060;43.770;4.008;2023-07-30T10:38:46;0.60;;;0.60;;
13973;SDS011;7060;43.770;4.008;2023-07-30T10:41:15;0.70;;;0.70;;
13973;SDS011;7060;43.770;4.008;2023-07-30T10:43:46;1.00;;;0.90;;
13973;SDS011;7060;43.770;4.008;2023-07-30T10:46:18;0.88;;;0.80;;
13973;SDS011;7060;43.770;4.008;2023-07-30T10:48:47;1.00;;;0.70;;
13973;SDS011;7060;43.770;4.008;2023-07-30T10:51:17;1.17;;;0.90;;
13973;SDS011;7060;43.770;4.008;2023-07-30T10:53:49;0.80;;;0.70;;
13973;SDS011;7060;43.770;4.008;2023-07-30T10:56:21;0.80;;;0.80;;
13973;SDS011;7060;43.770;4.008;2023-07-30T10:58:51;0.88;;;0.77;;
13973;SDS011;7060;43.770;4.008;2023-07-30T11:01:25;0.80;;;0.80;;
13973;SDS011;7060;43.770;4.008;2023-07-30T11:03:54;1.00;;;0.93;;
13973;SDS011;7060;43.770;4.008;2023-07-30T11:06:24;1.17;;;0.80;;
13973;SDS011;7060;43.770;4.008;2023-07-30T11:08:55;1.88;;;0.93;;
13973;SDS011;7060;43.770;4.008;2023-07-30T11:11:24;1.20;;;0.88;;
13973;SDS011;7060;43.770;4.008;2023-07-30T11:13:54;1.10;;;1.00;;
13973;SDS011;7060;43.770;4.008;2023-07-30T11:16:25;1.05;;;0.95;;
13973;SDS011;7060;43.770;4.008;2023-07-30T11:18:54;1.20;;;1.10;;
13973;SDS011;7060;43.770;4.008;2023-07-30T11:21:23;1.55;;;1.15;;
13973;SDS011;7060;43.770;4.008;2023-07-30T11:23:52;0.90;;;0.90;;
13973;SDS011;7060;43.770;4.008;2023-07-30T11:26:21;1.00;;;0.90;;
13973;SDS011;7060;43.770;4.008;2023-07-30T11:28:49;1.30;;;1.05;;
13973;SDS011;7060;43.770;4.008;2023-07-30T11:31:19;1.10;;;1.00;;
13973;SDS011;7060;43.770;4.008;2023-07-30T11:33:50;3.20;;;1.00;;
13973;SDS011;7060;43.770;4.008;2023-07-30T11:36:20;1.55;;;1.25;;
13973;SDS011;7060;43.770;4.008;2023-07-30T11:38:50;1.20;;;1.10;;
13973;SDS011;7060;43.770;4.008;2023-07-30T11:41:23;1.27;;;1.17;;
13973;SDS011;7060;43.770;4.008;2023-07-30T11:43:54;1.30;;;1.20;;
13973;SDS011;7060;43.770;4.008;2023-07-30T11:46:23;2.65;;;1.42;;
13973;SDS011;7060;43.770;4.008;2023-07-30T11:48:53;1.30;;;1.20;;
13973;SDS011;7060;43.770;4.008;2023-07-30T11:51:39;1.08;;;0.95;;
13973;SDS011;7060;43.770;4.008;2023-07-30T11:54:17;1.20;;;0.90;;
13973;SDS011;7060;43.770;4.008;2023-07-30T11:56:47;1.23;;;1.00;;
13973;SDS011;7060;43.770;4.008;2023-07-30T11:59:26;0.80;;;0.80;;
13973;SDS011;7060;43.770;4.008;2023-07-30T12:01:55;1.33;;;0.80;;
13973;SDS011;7060;43.770;4.008;2023-07-30T12:04:28;1.20;;;1.10;;
13973;SDS011;7060;43.770;4.008;2023-07-30T12:06:59;1.30;;;1.20;;
13973;SDS011;7060;43.770;4.008;2023-07-30T12:09:34;1.80;;;1.38;;
13973;SDS011;7060;43.770;4.008;2023-07-30T12:12:05;1.75;;;1.42;;
13973;SDS011;7060;43.770;4.008;2023-07-30T12:14:52;1.25;;;1.15;;
13973;SDS011;7060;43.770;4.008;2023-07-30T12:17:24;1.27;;;1.17;;
13973;SDS011;7060;43.770;4.008;2023-07-30T12:19:55;1.58;;;1.23;;
13973;SDS011;7060;43.770;4.008;2023-07-30T12:22:33;1.30;;;1.20;;
13973;SDS011;7060;43.770;4.008;2023-07-30T12:25:04;1.42;;;1.27;;
13973;SDS011;7060;43.770;4.008;2023-07-30T12:27:35;1.30;;;1.20;;
13973;SDS011;7060;43.770;4.008;2023-07-30T12:30:04;1.70;;;1.50;;
13973;SDS011;7060;43.770;4.008;2023-07-30T12:32:34;1.75;;;1.50;;
13973;SDS011;7060;43.770;4.008;2023-07-30T12:35:04;2.35;;;1.40;;
13973;SDS011;7060;43.770;4.008;2023-07-30T12:37:33;1.73;;;1.63;;
13973;SDS011;7060;43.770;4.008;2023-07-30T12:40:04;1.73;;;1.63;;
13973;SDS011;7060;43.770;4.008;2023-07-30T12:42:34;1.70;;;1.60;;
13973;SDS011;7060;43.770;4.008;2023-07-30T12:45:03;2.03;;;1.70;;
13973;SDS011;7060;43.770;4.008;2023-07-30T12:47:32;1.45;;;1.35;;
13973;SDS011;7060;43.770;4.008;2023-07-30T12:50:05;1.95;;;1.75;;
13973;SDS011;7060;43.770;4.008;2023-07-30T12:52:35;2.33;;;2.13;;
13973;SDS011;7060;43.770;4.008;2023-07-30T12:55:04;1.95;;;1.77;;
13973;SDS011;7060;43.770;4.008;2023-07-30T12:57:33;2.15;;;1.95;;
13973;SDS011;7060;43.770;4.008;2023-07-30T13:00:04;1.70;;;1.60;;
13973;SDS011;7060;43.770;4.008;2023-07-30T13:02:34;2.30;;;2.10;;
13973;SDS011;7060;43.770;4.008;2023-07-30T13:05:05;5.00;;;1.80;;
13973;SDS011;7060;43.770;4.008;2023-07-30T13:07:34;2.05;;;1.85;;
13973;SDS011;7060;43.770;4.008;2023-07-30T13:10:04;2.00;;;1.80;;
13973;SDS011;7060;43.770;4.008;2023-07-30T13:12:34;2.38;;;2.03;;
13973;SDS011;7060;43.770;4.008;2023-07-30T13:15:04;2.08;;;1.88;;
13973;SDS011;7060;43.770;4.008;2023-07-30T13:17:34;2.40;;;2.00;;
13973;SDS011;7060;43.770;4.008;2023-07-30T13:20:03;2.47;;;2.10;;
13973;SDS011;7060;43.770;4.008;2023-07-30T13:22:34;2.10;;;1.98;;
13973;SDS011;7060;43.770;4.008;2023-07-30T13:25:04;1.95;;;1.75;;
13973;SDS011;7060;43.770;4.008;2023-07-30T13:27:33;2.35;;;2.15;;
13973;SDS011;7060;43.770;4.008;2023-07-30T13:30:03;4.13;;;3.28;;
13973;SDS011;7060;43.770;4.008;2023-07-30T13:32:33;2.38;;;1.90;;
13973;SDS011;7060;43.770;4.008;2023-07-30T13:35:02;2.50;;;2.30;;
13973;SDS011;7060;43.770;4.008;2023-07-30T13:37:32;3.88;;;1.95;;
13973;SDS011;7060;43.770;4.008;2023-07-30T13:40:01;2.22;;;2.10;;
13973;SDS011;7060;43.770;4.008;2023-07-30T13:42:30;5.57;;;1.98;;
13973;SDS011;7060;43.770;4.008;2023-07-30T13:44:59;2.05;;;1.92;;
13973;SDS011;7060;43.770;4.008;2023-07-30T13:47:28;3.50;;;3.10;;
13973;SDS011;7060;43.770;4.008;2023-07-30T13:49:57;3.05;;;2.58;;
13973;SDS011;7060;43.770;4.008;2023-07-30T13:52:26;1.90;;;1.80;;
13973;SDS011;7060;43.770;4.008;2023-07-30T13:54:57;2.33;;;2.13;;
13973;SDS011;7060;43.770;4.008;2023-07-30T13:57:26;2.65;;;2.40;;
13973;SDS011;7060;43.770;4.008;2023-07-30T13:59:55;2.17;;;1.98;;
13973;SDS011;7060;43.770;4.008;2023-07-30T14:02:24;2.33;;;1.90;;
13973;SDS011;7060;43.770;4.008;2023-07-30T14:04:54;2.45;;;2.25;;
13973;SDS011;7060;43.770;4.008;2023-07-30T14:07:23;2.25;;;2.05;;
13973;SDS011;7060;43.770;4.008;2023-07-30T14:09:52;2.05;;;1.75;;
13973;SDS011;7060;43.770;4.008;2023-07-30T14:12:23;2.10;;;1.90;;
13973;SDS011;7060;43.770;4.008;2023-07-30T14:14:51;1.80;;;1.70;;
13973;SDS011;7060;43.770;4.008;2023-07-30T14:17:20;2.72;;;2.00;;
13973;SDS011;7060;43.770;4.008;2023-07-30T14:19:49;2.70;;;2.05;;
13973;SDS011;7060;43.770;4.008;2023-07-30T14:22:18;4.25;;;2.10;;
13973;SDS011;7060;43.770;4.008;2023-07-30T14:24:47;2.65;;;1.88;;
13973;SDS011;7060;43.770;4.008;2023-07-30T14:27:16;2.00;;;1.80;;
13973;SDS011;7060;43.770;4.008;2023-07-30T14:29:47;2.90;;;1.80;;
13973;SDS011;7060;43.770;4.008;2023-07-30T14:32:15;2.40;;;1.90;;
13973;SDS011;7060;43.770;4.008;2023-07-30T14:34:45;2.03;;;1.80;;
13973;SDS011;7060;43.770;4.008;2023-07-30T14:37:14;1.70;;;1.60;;
13973;SDS011;7060;43.770;4.008;2023-07-30T14:39:43;1.75;;;1.60;;
13973;SDS011;7060;43.770;4.008;2023-07-30T14:42:12;1.95;;;1.85;;
13973;SDS011;7060;43.770;4.008;2023-07-30T14:44:41;2.58;;;1.52;;
13973;SDS011;7060;43.770;4.008;2023-07-30T14:47:11;1.90;;;1.80;;
13973;SDS011;7060;43.770;4.008;2023-07-30T14:49:40;2.33;;;1.73;;
13973;SDS011;7060;43.770;4.008;2023-07-30T14:52:10;2.20;;;1.75;;
13973;SDS011;7060;43.770;4.008;2023-07-30T14:54:38;2.65;;;1.70;;
13973;SDS011;7060;43.770;4.008;2023-07-30T14:57:07;1.75;;;1.65;;
13973;SDS011;7060;43.770;4.008;2023-07-30T14:59:36;2.15;;;1.95;;
13973;SDS011;7060;43.770;4.008;2023-07-30T15:02:05;1.90;;;1.60;;
13973;SDS011;7060;43.770;4.008;2023-07-30T15:04:36;2.00;;;1.80;;
13973;SDS011;7060;43.770;4.008;2023-07-30T15:07:05;1.85;;;1.73;;
13973;SDS011;7060;43.770;4.008;2023-07-30T15:09:35;1.75;;;1.63;;
13973;SDS011;7060;43.770;4.008;2023-07-30T15:12:05;1.88;;;1.70;;
13973;SDS011;7060;43.770;4.008;2023-07-30T15:14:34;2.00;;;1.70;;
13973;SDS011;7060;43.770;4.008;2023-07-30T15:17:03;1.92;;;1.73;;